createdAt,value
2023-01-30T00:01:19.885Z,10.57
2023-01-30T00:03:47.257Z,11.23
2023-01-30T00:06:14.543Z,10.93
2023-01-30T00:08:41.428Z,11.65
2023-01-30T00:11:11.688Z,10.50
2023-01-30T00:13:40.429Z,11.27
2023-01-30T00:16:09.803Z,12.25
2023-01-30T00:18:38.628Z,10.68
2023-01-30T00:21:08.423Z,9.93
2023-01-30T00:23:36.961Z,10.63
2023-01-30T00:26:05.021Z,10.55
2023-01-30T00:28:32.501Z,10.05
2023-01-30T00:30:59.578Z,10.75
2023-01-30T00:33:27.758Z,10.45
2023-01-30T00:35:56.893Z,11.43
2023-01-30T00:38:24.452Z,11.35
2023-01-30T00:40:51.298Z,11.00
2023-01-30T00:43:38.867Z,10.25
2023-01-30T00:46:33.180Z,10.90
2023-01-30T00:49:00.109Z,11.15
2023-01-30T00:51:27.137Z,10.63
2023-01-30T00:53:54.305Z,11.15
2023-01-30T00:56:21.219Z,11.32
2023-01-30T00:58:48.676Z,10.95
2023-01-30T01:01:15.650Z,10.30
2023-01-30T01:03:43.653Z,10.73
2023-01-30T01:06:11.089Z,10.45
2023-01-30T01:08:38.231Z,9.90
2023-01-30T01:11:05.282Z,10.70
2023-01-30T01:13:33.247Z,11.75
2023-01-30T01:16:00.259Z,11.23
2023-01-30T01:18:27.295Z,10.65
2023-01-30T01:20:54.447Z,10.82
2023-01-30T01:23:21.518Z,10.82
2023-01-30T01:25:50.054Z,10.35
2023-01-30T01:28:21.787Z,10.55
2023-01-30T01:30:48.723Z,10.27
2023-01-30T01:33:15.860Z,13.00
2023-01-30T01:35:43.039Z,10.85
2023-01-30T01:38:10.373Z,10.40
2023-01-30T01:40:57.839Z,11.32
2023-01-30T01:43:26.031Z,11.48
2023-01-30T01:45:58.162Z,10.55
2023-01-30T01:48:40.636Z,10.93
2023-01-30T01:51:21.203Z,10.32
2023-01-30T01:53:58.831Z,10.18
2023-01-30T01:56:26.243Z,10.60
2023-01-30T01:58:58.231Z,10.10
2023-01-30T02:01:25.270Z,10.55
2023-01-30T02:03:58.899Z,10.18
2023-01-30T02:06:25.980Z,10.20
2023-01-30T02:09:00.328Z,9.57
2023-01-30T02:11:34.928Z,10.50
2023-01-30T02:14:06.063Z,9.88
2023-01-30T02:16:34.355Z,10.48
2023-01-30T02:19:11.541Z,11.50
2023-01-30T02:21:57.238Z,11.23
2023-01-30T02:24:48.156Z,9.70
2023-01-30T02:27:34.131Z,9.70
2023-01-30T02:30:39.384Z,11.63
2023-01-30T02:33:09.536Z,10.63
2023-01-30T02:35:36.345Z,10.15
2023-01-30T02:38:21.448Z,9.15
2023-01-30T02:41:07.088Z,10.15
2023-01-30T02:44:04.375Z,9.27
2023-01-30T02:46:55.505Z,8.45
2023-01-30T02:49:41.085Z,9.48
2023-01-30T02:52:11.688Z,9.18
2023-01-30T02:54:38.575Z,8.80
2023-01-30T02:57:21.579Z,9.07
2023-01-30T02:59:59.512Z,8.77
2023-01-30T03:02:52.125Z,12.45
2023-01-30T03:05:53.787Z,12.10
2023-01-30T03:08:59.135Z,10.05
2023-01-30T03:28:02.534Z,7.93
2023-01-30T03:30:29.950Z,8.27
2023-01-30T03:33:06.648Z,7.40
2023-01-30T03:35:36.445Z,8.48
2023-01-30T03:38:03.541Z,8.48
2023-01-30T03:40:30.640Z,8.70
2023-01-30T03:42:58.674Z,8.27
2023-01-30T03:45:26.451Z,8.48
2023-01-30T03:47:53.570Z,8.05
2023-01-30T03:50:20.445Z,7.72
2023-01-30T03:52:47.689Z,8.45
2023-01-30T03:55:18.442Z,7.53
2023-01-30T03:57:45.562Z,8.43
2023-01-30T04:00:13.056Z,7.70
2023-01-30T04:02:50.460Z,8.55
2023-01-30T04:05:18.780Z,7.45
2023-01-30T04:07:57.074Z,7.30
2023-01-30T04:10:25.393Z,8.27
2023-01-30T04:12:52.465Z,8.60
2023-01-30T04:15:20.655Z,8.48
2023-01-30T04:18:19.052Z,8.38
2023-01-30T04:20:50.310Z,7.95
2023-01-30T04:23:22.316Z,8.77
2023-01-30T04:25:50.685Z,9.10
2023-01-30T04:28:19.909Z,8.00
2023-01-30T04:30:47.594Z,7.75
2023-01-30T04:33:35.573Z,8.93
2023-01-30T04:36:05.269Z,8.63
2023-01-30T04:38:33.215Z,8.35
2023-01-30T04:41:01.155Z,8.40
2023-01-30T04:43:31.086Z,8.48
2023-01-30T04:46:17.547Z,8.57
2023-01-30T04:48:44.759Z,8.90
2023-01-30T04:51:11.666Z,8.27
2023-01-30T04:53:38.874Z,8.75
2023-01-30T04:56:06.739Z,7.85
2023-01-30T04:58:33.611Z,9.00
2023-01-30T05:01:37.341Z,8.68
2023-01-30T05:04:06.023Z,8.85
2023-01-30T05:06:34.764Z,8.25
2023-01-30T05:09:02.097Z,8.60
2023-01-30T05:11:30.632Z,8.85
2023-01-30T05:13:58.583Z,8.73
2023-01-30T05:16:25.628Z,8.77
2023-01-30T05:18:52.931Z,8.60
2023-01-30T05:21:22.685Z,8.68
2023-01-30T05:23:51.043Z,9.10
2023-01-30T05:26:18.002Z,9.80
2023-01-30T05:28:44.964Z,9.73
2023-01-30T05:31:13.863Z,11.02
2023-01-30T05:33:41.193Z,9.05
2023-01-30T05:36:13.582Z,9.73
2023-01-30T05:38:40.424Z,9.65
2023-01-30T05:41:08.792Z,9.55
2023-01-30T05:43:35.768Z,9.80
2023-01-30T05:46:04.643Z,11.32
2023-01-30T05:48:32.957Z,10.80
2023-01-30T05:51:00.305Z,10.63
2023-01-30T05:53:30.240Z,10.75
2023-01-30T05:55:59.126Z,12.55
2023-01-30T05:58:27.530Z,10.02
2023-01-30T06:00:54.584Z,9.98
2023-01-30T06:03:21.657Z,10.68
2023-01-30T06:05:48.553Z,11.15
2023-01-30T06:08:15.534Z,11.63
2023-01-30T06:10:42.472Z,11.18
2023-01-30T06:13:11.177Z,10.77
2023-01-30T06:15:38.399Z,10.00
2023-01-30T06:18:05.587Z,10.18
2023-01-30T06:20:32.501Z,10.48
2023-01-30T06:22:59.300Z,10.30
2023-01-30T06:25:27.406Z,10.93
2023-01-30T06:27:54.432Z,12.02
2023-01-30T06:30:21.563Z,10.98
2023-01-30T06:32:52.049Z,10.68
2023-01-30T06:35:19.496Z,11.43
2023-01-30T06:37:46.686Z,13.45
2023-01-30T06:40:13.879Z,13.05
2023-01-30T06:42:48.287Z,11.70
2023-01-30T06:45:18.984Z,12.68
2023-01-30T06:47:54.686Z,14.25
2023-01-30T06:50:24.951Z,13.90
2023-01-30T06:52:53.339Z,14.38
2023-01-30T06:55:23.026Z,18.13
2023-01-30T06:57:50.829Z,16.73
2023-01-30T07:00:20.118Z,14.27
2023-01-30T07:02:47.646Z,14.57
2023-01-30T07:05:14.731Z,13.10
2023-01-30T07:07:41.757Z,14.48
2023-01-30T07:10:09.528Z,14.27
2023-01-30T07:12:37.047Z,14.90
2023-01-30T07:15:05.615Z,14.38
2023-01-30T07:17:33.222Z,14.73
2023-01-30T07:20:00.170Z,12.95
2023-01-30T07:22:27.069Z,12.40
2023-01-30T07:24:54.000Z,11.95
2023-01-30T07:27:20.979Z,13.80
2023-01-30T07:29:47.787Z,11.90
2023-01-30T07:32:18.433Z,14.77
2023-01-30T07:34:45.911Z,15.43
2023-01-30T07:37:13.014Z,13.82
2023-01-30T07:39:39.867Z,15.27
2023-01-30T07:42:07.031Z,16.02
2023-01-30T07:44:34.562Z,13.23
2023-01-30T07:47:01.838Z,14.23
2023-01-30T07:49:29.004Z,13.45
2023-01-30T07:51:55.942Z,13.38
2023-01-30T07:54:23.086Z,14.18
2023-01-30T07:56:49.938Z,12.77
2023-01-30T07:59:16.837Z,12.52
2023-01-30T08:01:43.714Z,13.23
2023-01-30T08:04:10.592Z,14.00
2023-01-30T08:06:39.412Z,12.55
2023-01-30T08:09:07.421Z,11.98
2023-01-30T08:11:34.981Z,11.35
2023-01-30T08:14:02.166Z,12.55
2023-01-30T08:16:29.156Z,11.25
2023-01-30T08:18:56.036Z,13.07
2023-01-30T08:21:22.956Z,11.85
2023-01-30T08:23:49.868Z,12.45
2023-01-30T08:26:16.962Z,12.60
2023-01-30T08:28:43.897Z,11.80
2023-01-30T08:31:13.394Z,11.68
2023-01-30T08:33:40.381Z,11.52
2023-01-30T08:36:07.661Z,10.25
2023-01-30T08:38:34.560Z,13.38
2023-01-30T08:41:04.122Z,11.20
2023-01-30T08:43:31.017Z,11.60
2023-01-30T08:45:57.906Z,10.00
2023-01-30T08:48:24.832Z,10.82
2023-01-30T08:50:55.811Z,12.23
2023-01-30T08:53:23.441Z,9.63
2023-01-30T08:55:53.997Z,10.65
2023-01-30T08:58:22.075Z,11.20
2023-01-30T09:00:50.550Z,10.45
2023-01-30T09:03:18.644Z,11.88
2023-01-30T09:05:46.024Z,11.07
2023-01-30T09:08:14.116Z,11.23
2023-01-30T09:10:40.917Z,10.90
2023-01-30T09:13:09.821Z,10.40
2023-01-30T09:15:36.959Z,10.20
2023-01-30T09:18:05.103Z,9.85
2023-01-30T09:20:32.233Z,11.50
2023-01-30T09:22:59.509Z,11.60
2023-01-30T09:25:26.364Z,12.65
2023-01-30T09:27:53.218Z,15.00
2023-01-30T09:30:20.510Z,14.70
2023-01-30T09:32:48.403Z,16.98
2023-01-30T09:35:15.448Z,16.83
2023-01-30T09:37:52.639Z,15.50
2023-01-30T09:40:26.660Z,17.15
2023-01-30T09:43:08.458Z,15.77
2023-01-30T09:45:47.445Z,16.10
2023-01-30T09:48:54.940Z,14.88
2023-01-30T09:51:35.768Z,17.65
2023-01-30T09:54:22.215Z,15.65
2023-01-30T09:57:22.728Z,14.27
2023-01-30T09:59:57.730Z,17.05
2023-01-30T10:02:37.275Z,16.85
2023-01-30T10:05:05.272Z,16.80
2023-01-30T10:07:52.425Z,17.08
2023-01-30T10:10:55.110Z,17.85
2023-01-30T10:13:49.564Z,17.95
2023-01-30T10:16:41.715Z,18.73
2023-01-30T10:19:11.449Z,17.40
2023-01-30T10:22:20.497Z,18.77
2023-01-30T10:25:02.206Z,17.15
2023-01-30T10:27:31.245Z,18.67
2023-01-30T10:30:02.707Z,17.05
2023-01-30T10:32:30.329Z,14.75
2023-01-30T10:35:02.753Z,14.90
2023-01-30T10:37:42.765Z,15.27
2023-01-30T10:40:33.723Z,16.23
2023-01-30T10:43:19.186Z,15.77
2023-01-30T10:45:58.193Z,16.40
2023-01-30T10:48:43.215Z,15.05
2023-01-30T10:51:34.849Z,16.98
2023-01-30T10:54:19.275Z,17.23
2023-01-30T10:56:57.436Z,17.20
2023-01-30T10:59:50.927Z,16.88
2023-01-30T11:02:36.246Z,16.25
2023-01-30T11:05:13.239Z,16.77
2023-01-30T11:07:42.250Z,15.45
2023-01-30T11:10:19.283Z,15.70
2023-01-30T11:12:46.927Z,16.77
2023-01-30T11:15:13.818Z,17.48
2023-01-30T11:17:43.246Z,17.17
2023-01-30T11:20:20.427Z,17.98
2023-01-30T11:23:12.814Z,17.50
2023-01-30T11:26:05.507Z,16.83
2023-01-30T11:28:42.384Z,18.85
2023-01-30T11:31:42.114Z,18.02
2023-01-30T11:34:16.311Z,17.98
2023-01-30T11:36:43.547Z,18.63
2023-01-30T11:39:13.484Z,18.02
2023-01-30T11:41:56.917Z,15.80
2023-01-30T11:44:27.815Z,14.70
2023-01-30T11:46:58.144Z,15.43
2023-01-30T11:49:46.432Z,15.18
2023-01-30T11:52:24.448Z,13.95
2023-01-30T11:54:52.348Z,14.35
2023-01-30T11:57:20.606Z,13.25
2023-01-30T11:59:55.333Z,14.38
2023-01-30T12:02:36.375Z,13.68
2023-01-30T12:05:19.467Z,13.93
2023-01-30T12:07:49.116Z,13.27
2023-01-30T12:10:25.378Z,13.95
2023-01-30T12:12:55.468Z,13.90
2023-01-30T12:15:27.611Z,14.23
2023-01-30T12:17:57.461Z,13.57
2023-01-30T12:20:36.161Z,13.77
2023-01-30T12:23:15.233Z,16.13
2023-01-30T12:26:10.764Z,15.65
2023-01-30T12:28:40.474Z,17.52
2023-01-30T12:31:39.663Z,16.92
2023-01-30T12:34:09.848Z,17.30
2023-01-30T12:36:56.818Z,15.65
2023-01-30T12:39:42.009Z,15.98
2023-01-30T12:42:33.551Z,16.33
2023-01-30T12:45:15.627Z,16.70
2023-01-30T12:48:00.640Z,18.20
2023-01-30T12:50:45.666Z,16.63
2023-01-30T12:53:44.528Z,15.80
2023-01-30T12:56:46.941Z,17.15
2023-01-30T12:59:59.709Z,15.73
2023-01-30T13:02:38.640Z,16.42
2023-01-30T13:05:17.479Z,15.38
2023-01-30T13:08:41.505Z,15.10
2023-01-30T13:11:48.515Z,15.02
2023-01-30T13:14:55.878Z,15.32
2023-01-30T13:17:50.587Z,14.27
2023-01-30T13:20:23.133Z,15.52
2023-01-30T13:23:10.194Z,17.52
2023-01-30T13:25:42.333Z,15.27
2023-01-30T13:28:39.804Z,15.55
2023-01-30T13:31:12.883Z,14.65
2023-01-30T13:33:44.805Z,15.50
2023-01-30T13:36:11.706Z,15.43
2023-01-30T13:38:49.923Z,15.43
2023-01-30T13:41:18.869Z,15.57
2023-01-30T13:43:51.794Z,14.93
2023-01-30T13:46:24.720Z,14.02
2023-01-30T13:49:03.538Z,13.00
2023-01-30T13:51:49.595Z,15.38
2023-01-30T13:54:37.861Z,13.40
2023-01-30T13:57:13.843Z,14.45
2023-01-30T14:00:12.893Z,12.75
2023-01-30T14:03:08.495Z,13.07
2023-01-30T14:05:59.147Z,13.88
2023-01-30T14:09:01.626Z,13.55
2023-01-30T14:11:44.924Z,14.27
2023-01-30T14:14:29.477Z,14.85
2023-01-30T14:17:08.525Z,15.48
2023-01-30T14:19:45.697Z,13.13
2023-01-30T14:22:42.510Z,12.45
2023-01-30T14:25:27.926Z,13.27
2023-01-30T14:28:17.904Z,14.90
2023-01-30T14:30:44.737Z,13.05
2023-01-30T14:33:20.813Z,14.57
2023-01-30T14:35:49.800Z,12.98
2023-01-30T14:38:19.553Z,14.40
2023-01-30T14:43:53.105Z,13.68
2023-01-30T14:46:20.580Z,12.77
2023-01-30T14:49:05.267Z,13.32
2023-01-30T14:54:14.959Z,14.35
2023-01-30T14:56:54.383Z,13.32
2023-01-30T14:59:24.509Z,11.82
2023-01-30T15:02:04.895Z,15.18
2023-01-30T15:04:40.151Z,13.88
2023-01-30T15:07:19.029Z,12.98
2023-01-30T15:10:24.021Z,12.95
2023-01-30T15:13:06.227Z,13.40
2023-01-30T15:30:17.231Z,13.45
2023-01-30T15:32:44.909Z,11.85
2023-01-30T15:35:11.953Z,12.68
2023-01-30T15:37:51.960Z,12.77
2023-01-30T15:40:25.913Z,12.63
2023-01-30T15:43:02.339Z,12.27
2023-01-30T15:45:48.076Z,13.60
2023-01-30T15:48:41.520Z,12.52
2023-01-30T15:51:13.313Z,12.05
2023-01-30T15:53:44.327Z,12.18
2023-01-30T15:56:20.724Z,13.02
2023-01-30T15:58:47.715Z,13.10
2023-01-30T16:01:20.132Z,14.05
2023-01-30T16:03:50.117Z,11.88
2023-01-30T16:06:43.462Z,13.13
2023-01-30T16:09:22.387Z,12.15
2023-01-30T16:11:50.563Z,13.63
2023-01-30T16:14:20.087Z,13.25
2023-01-30T16:16:50.258Z,13.35
2023-01-30T16:19:32.644Z,12.32
2023-01-30T16:22:03.312Z,13.93
2023-01-30T16:24:33.233Z,13.63
2023-01-30T16:27:08.175Z,14.23
2023-01-30T16:29:51.261Z,13.02
2023-01-30T16:32:25.036Z,12.88
2023-01-30T16:35:11.828Z,13.47
2023-01-30T16:37:38.626Z,13.30
2023-01-30T16:40:11.274Z,12.43
2023-01-30T16:42:38.252Z,13.38
2023-01-30T16:45:14.236Z,13.68
2023-01-30T16:47:41.251Z,13.07
2023-01-30T16:50:20.431Z,12.13
2023-01-30T16:52:51.770Z,12.02
2023-01-30T16:55:22.633Z,12.43
2023-01-30T16:58:00.171Z,13.07
2023-01-30T17:00:41.098Z,13.55
2023-01-30T17:03:31.761Z,12.60
2023-01-30T17:05:59.743Z,12.70
2023-01-30T17:08:55.823Z,13.02
2023-01-30T17:11:30.943Z,13.82
2023-01-30T17:14:16.750Z,14.18
2023-01-30T17:16:46.239Z,15.13
2023-01-30T17:19:14.504Z,14.27
2023-01-30T17:21:51.068Z,13.60
2023-01-30T17:24:21.315Z,13.82
2023-01-30T17:26:50.845Z,12.82
2023-01-30T17:29:41.016Z,14.07
2023-01-30T17:32:11.872Z,12.00
2023-01-30T17:34:41.302Z,13.20
2023-01-30T17:37:18.328Z,14.02
2023-01-30T17:39:45.374Z,12.27
2023-01-30T17:42:15.102Z,12.80
2023-01-30T17:44:42.200Z,13.77
2023-01-30T17:47:12.556Z,13.93
2023-01-30T17:49:40.201Z,14.98
2023-01-30T17:52:07.288Z,15.23
2023-01-30T17:54:34.619Z,14.40
2023-01-30T17:57:09.734Z,14.93
2023-01-30T17:59:36.865Z,25.02
2023-01-30T18:02:04.506Z,15.30
2023-01-30T18:04:31.306Z,13.05
2023-01-30T18:07:04.892Z,14.40
2023-01-30T18:09:32.306Z,13.40
2023-01-30T18:11:59.303Z,14.13
2023-01-30T18:14:26.130Z,13.48
2023-01-30T18:16:55.998Z,13.25
2023-01-30T18:19:24.239Z,13.80
2023-01-30T18:21:51.268Z,15.00
2023-01-30T18:24:18.616Z,15.00
2023-01-30T18:26:46.084Z,15.25
2023-01-30T18:29:13.457Z,15.57
2023-01-30T18:31:41.501Z,14.30
2023-01-30T18:34:10.609Z,15.68
2023-01-30T18:36:38.385Z,16.80
2023-01-30T18:39:06.246Z,15.95
2023-01-30T18:41:35.255Z,17.85
2023-01-30T18:44:04.783Z,18.50
2023-01-30T18:46:32.603Z,15.98
2023-01-30T18:48:59.847Z,15.85
2023-01-30T18:51:33.987Z,16.55
2023-01-30T18:54:01.957Z,15.32
2023-01-30T18:56:34.163Z,15.50
2023-01-30T18:59:04.268Z,16.00
2023-01-30T19:01:38.837Z,17.30
2023-01-30T19:06:37.597Z,15.23
2023-01-30T19:09:05.516Z,16.77
2023-01-30T19:11:50.808Z,17.98
2023-01-30T19:14:17.820Z,16.30
2023-01-30T19:16:44.734Z,16.02
2023-01-30T19:19:11.791Z,15.90
2023-01-30T19:21:39.051Z,15.68
2023-01-30T19:24:08.256Z,18.00
2023-01-30T19:26:35.456Z,17.67
2023-01-30T19:29:02.373Z,17.08
2023-01-30T19:31:29.465Z,17.17
2023-01-30T19:33:59.292Z,18.75
2023-01-30T19:36:27.740Z,19.15
2023-01-30T19:38:55.071Z,17.83
2023-01-30T19:41:24.624Z,18.55
2023-01-30T19:43:53.435Z,20.58
2023-01-30T19:46:20.729Z,18.92
2023-01-30T19:48:49.056Z,19.05
2023-01-30T19:51:20.579Z,19.73
2023-01-30T19:54:01.337Z,19.42
2023-01-30T19:56:29.705Z,22.77
2023-01-30T19:58:58.686Z,47.67
2023-01-30T20:01:29.707Z,18.90
2023-01-30T20:03:57.193Z,17.88
2023-01-30T20:06:26.804Z,19.25
2023-01-30T20:08:56.437Z,18.20
2023-01-30T20:11:23.508Z,19.10
2023-01-30T20:13:51.540Z,19.67
2023-01-30T20:16:21.711Z,19.30
2023-01-30T20:18:54.300Z,20.52
2023-01-30T20:21:22.648Z,21.73
2023-01-30T20:23:50.446Z,20.92
2023-01-30T20:26:23.062Z,20.38
2023-01-30T20:28:50.303Z,20.52
2023-01-30T20:31:20.060Z,20.25
2023-01-30T20:33:47.520Z,21.42
2023-01-30T20:36:17.786Z,21.52
2023-01-30T20:38:45.488Z,20.35
2023-01-30T20:41:15.372Z,24.30
2023-01-30T20:43:49.091Z,24.30
2023-01-30T20:46:18.873Z,23.55
2023-01-30T20:48:46.317Z,22.77
2023-01-30T20:51:16.030Z,20.40
2023-01-30T20:53:48.442Z,20.75
2023-01-30T20:56:15.520Z,22.08
2023-01-30T20:58:42.515Z,22.13
2023-01-30T21:01:18.011Z,22.73
2023-01-30T21:03:50.655Z,20.73
2023-01-30T21:06:37.173Z,21.65
2023-01-30T21:09:08.792Z,19.55
2023-01-30T21:11:40.860Z,20.40
2023-01-30T21:14:12.122Z,21.60
2023-01-30T21:16:39.746Z,20.90
2023-01-30T21:19:11.139Z,22.05
2023-01-30T21:22:07.595Z,21.33
2023-01-30T21:24:34.563Z,21.55
2023-01-30T21:27:01.883Z,23.85
2023-01-30T21:29:29.478Z,21.58
2023-01-30T21:31:57.700Z,22.55
2023-01-30T21:34:24.641Z,21.45
2023-01-30T21:37:09.992Z,20.88
2023-01-30T21:39:55.837Z,22.13
2023-01-30T21:42:41.087Z,22.30
2023-01-30T21:45:08.587Z,22.13
2023-01-30T21:47:35.449Z,20.58
2023-01-30T21:50:02.454Z,22.77
2023-01-30T21:52:32.042Z,21.65
2023-01-30T21:54:59.392Z,22.70
2023-01-30T21:57:26.172Z,22.27
2023-01-30T21:59:53.085Z,22.67
2023-01-30T22:02:20.137Z,21.42
2023-01-30T22:04:47.080Z,26.00
2023-01-30T22:07:14.179Z,26.35
2023-01-30T22:09:41.134Z,25.48
2023-01-30T22:12:08.059Z,26.33
2023-01-30T22:14:36.361Z,28.02
2023-01-30T22:17:03.514Z,27.88
2023-01-30T22:19:35.468Z,25.55
2023-01-30T22:22:02.909Z,27.40
2023-01-30T22:24:29.968Z,28.88
2023-01-30T22:26:57.138Z,27.27
2023-01-30T22:29:24.023Z,26.65
2023-01-30T22:31:51.432Z,28.65
2023-01-30T22:34:18.523Z,29.67
2023-01-30T22:36:45.441Z,27.85
2023-01-30T22:39:12.337Z,29.33
2023-01-30T22:41:39.694Z,27.35
2023-01-30T22:44:09.337Z,30.00
2023-01-30T22:46:38.693Z,33.17
2023-01-30T22:49:06.948Z,34.83
2023-01-30T22:51:39.485Z,32.42
2023-01-30T22:54:12.753Z,34.13
2023-01-30T22:56:42.067Z,34.10
2023-01-30T22:59:09.659Z,35.63
2023-01-30T23:01:42.109Z,34.03
2023-01-30T23:04:14.837Z,36.60
2023-01-30T23:06:42.893Z,35.58
2023-01-30T23:09:13.572Z,33.85
2023-01-30T23:12:10.407Z,37.00
2023-01-30T23:14:38.238Z,34.90
2023-01-30T23:17:25.690Z,34.33
2023-01-30T23:19:53.898Z,31.90
2023-01-30T23:22:20.926Z,31.00
2023-01-30T23:24:48.812Z,33.70
2023-01-30T23:27:15.812Z,31.98
2023-01-30T23:29:43.080Z,31.02
2023-01-30T23:32:10.026Z,32.55
2023-01-30T23:34:37.056Z,31.30
2023-01-30T23:37:03.881Z,30.60
2023-01-30T23:39:30.696Z,29.35
2023-01-30T23:41:57.515Z,30.48
2023-01-30T23:44:24.452Z,28.33
2023-01-30T23:46:51.336Z,29.83
2023-01-30T23:49:18.398Z,27.27
2023-01-30T23:51:46.376Z,26.45
2023-01-30T23:54:13.802Z,27.95
2023-01-30T23:56:43.101Z,26.08
2023-01-30T23:59:10.305Z,25.98
